Johnson County (6A4)
Johnson County, TN
Field Elevation: 2240
Lat: 36°25.07N  Long: 81°49.51W
CTAF/Unicom Freq: 122.7000
   
    
Weather Advisories
9/2/2014 16:57 Z
Altimeter 30.16" Hg
Wind 260° @ 5 KT
Gusts --
Visibility 10 SM
Ceiling FEW045 SCT058 BKN210
Temperature 27° C (81° F)
Dewpoint 21° C (70° F)
Relative Humidity 67%
Density Altitude 3,900 feet
Condensation Altitude 5,600 feet
Heat Index 29° C (84° F)
  Wind and Runways
Indicated Runway = 24
History
 
 
More Info
All DigiWx sites map
 
Johnson County Airport FBO
 
Airport IQ 5010
(M01) General Dewitt Spain Airport
(3M3) Collegedale Muni
 
about DigiWx
 
FAA Disclaimer: The data displayed is for advisory purposes only and is not to be used for flight planning or operations. For official data, please call (not available) to hear the current automated AWOS voice message.
  METAR 6A4 021657Z AUTO 26005KT 10SM FEW045 SCT058 BKN210 27/21 A3016